sensor_id;sensor_type;location;lat;lon;timestamp;P1;durP1;ratioP1;P2;durP2;ratioP2
75456;SDS011;64036;48.266;14.192;2023-04-01T00:01:26;1.30;;;1.00;;
75456;SDS011;64036;48.266;14.192;2023-04-01T00:03:55;2.20;;;0.90;;
75456;SDS011;64036;48.266;14.192;2023-04-01T00:10:26;2.40;;;1.00;;
75456;SDS011;64036;48.266;14.192;2023-04-01T00:13:13;2.10;;;1.00;;
75456;SDS011;64036;48.266;14.192;2023-04-01T00:16:06;1.00;;;0.90;;
75456;SDS011;64036;48.266;14.192;2023-04-01T00:18:47;2.50;;;1.00;;
75456;SDS011;64036;48.266;14.192;2023-04-01T00:21:14;2.60;;;1.20;;
75456;SDS011;64036;48.266;14.192;2023-04-01T00:23:40;2.20;;;1.00;;
75456;SDS011;64036;48.266;14.192;2023-04-01T00:26:06;2.30;;;1.10;;
75456;SDS011;64036;48.266;14.192;2023-04-01T00:28:34;1.80;;;1.10;;
75456;SDS011;64036;48.266;14.192;2023-04-01T00:31:05;1.80;;;0.90;;
75456;SDS011;64036;48.266;14.192;2023-04-01T00:33:32;1.00;;;0.70;;
75456;SDS011;64036;48.266;14.192;2023-04-01T00:36:09;1.30;;;0.90;;
75456;SDS011;64036;48.266;14.192;2023-04-01T00:38:45;2.60;;;0.80;;
75456;SDS011;64036;48.266;14.192;2023-04-01T00:41:18;2.00;;;0.80;;
75456;SDS011;64036;48.266;14.192;2023-04-01T00:43:48;1.60;;;0.90;;
75456;SDS011;64036;48.266;14.192;2023-04-01T00:46:16;3.30;;;1.20;;
75456;SDS011;64036;48.266;14.192;2023-04-01T00:48:47;1.70;;;1.40;;
75456;SDS011;64036;48.266;14.192;2023-04-01T00:51:17;4.60;;;1.00;;
75456;SDS011;64036;48.266;14.192;2023-04-01T00:53:49;5.40;;;1.30;;
75456;SDS011;64036;48.266;14.192;2023-04-01T00:56:37;3.70;;;1.20;;
75456;SDS011;64036;48.266;14.192;2023-04-01T00:59:26;2.40;;;1.10;;
75456;SDS011;64036;48.266;14.192;2023-04-01T01:01:55;2.70;;;1.10;;
75456;SDS011;64036;48.266;14.192;2023-04-01T01:04:28;5.00;;;1.10;;
75456;SDS011;64036;48.266;14.192;2023-04-01T01:07:38;1.50;;;1.00;;
75456;SDS011;64036;48.266;14.192;2023-04-01T01:10:26;2.00;;;0.80;;
75456;SDS011;64036;48.266;14.192;2023-04-01T01:13:41;2.70;;;1.10;;
75456;SDS011;64036;48.266;14.192;2023-04-01T01:16:28;2.90;;;1.10;;
75456;SDS011;64036;48.266;14.192;2023-04-01T01:26:42;2.30;;;1.00;;
75456;SDS011;64036;48.266;14.192;2023-04-01T01:33:55;3.00;;;1.00;;
75456;SDS011;64036;48.266;14.192;2023-04-01T01:36:24;1.70;;;0.90;;
75456;SDS011;64036;48.266;14.192;2023-04-01T01:39:03;3.80;;;1.00;;
75456;SDS011;64036;48.266;14.192;2023-04-01T01:41:32;1.70;;;0.80;;
75456;SDS011;64036;48.266;14.192;2023-04-01T01:44:02;3.10;;;1.10;;
75456;SDS011;64036;48.266;14.192;2023-04-01T01:46:32;3.10;;;1.10;;
75456;SDS011;64036;48.266;14.192;2023-04-01T01:49:00;2.50;;;1.10;;
75456;SDS011;64036;48.266;14.192;2023-04-01T01:51:27;3.80;;;1.50;;
75456;SDS011;64036;48.266;14.192;2023-04-01T01:53:53;4.30;;;1.70;;
75456;SDS011;64036;48.266;14.192;2023-04-01T01:56:24;2.00;;;1.30;;
75456;SDS011;64036;48.266;14.192;2023-04-01T01:58:55;3.90;;;1.30;;
75456;SDS011;64036;48.266;14.192;2023-04-01T02:01:27;4.90;;;1.10;;
75456;SDS011;64036;48.266;14.192;2023-04-01T02:03:58;2.30;;;1.00;;
75456;SDS011;64036;48.266;14.192;2023-04-01T02:06:30;1.10;;;0.70;;
75456;SDS011;64036;48.266;14.192;2023-04-01T02:09:03;2.00;;;0.90;;
75456;SDS011;64036;48.266;14.192;2023-04-01T02:11:42;2.40;;;0.80;;
75456;SDS011;64036;48.266;14.192;2023-04-01T02:14:47;2.10;;;1.00;;
75456;SDS011;64036;48.266;14.192;2023-04-01T02:17:33;3.50;;;0.90;;
75456;SDS011;64036;48.266;14.192;2023-04-01T02:20:32;0.90;;;0.70;;
75456;SDS011;64036;48.266;14.192;2023-04-01T02:23:03;3.30;;;0.80;;
75456;SDS011;64036;48.266;14.192;2023-04-01T02:25:39;1.00;;;0.80;;
75456;SDS011;64036;48.266;14.192;2023-04-01T02:28:13;1.20;;;0.80;;
75456;SDS011;64036;48.266;14.192;2023-04-01T02:30:43;3.20;;;0.80;;
75456;SDS011;64036;48.266;14.192;2023-04-01T02:33:10;1.50;;;0.90;;
75456;SDS011;64036;48.266;14.192;2023-04-01T02:35:36;1.20;;;0.80;;
75456;SDS011;64036;48.266;14.192;2023-04-01T02:38:03;4.00;;;1.20;;
75456;SDS011;64036;48.266;14.192;2023-04-01T02:44:19;1.40;;;0.90;;
75456;SDS011;64036;48.266;14.192;2023-04-01T02:47:07;1.20;;;1.00;;
75456;SDS011;64036;48.266;14.192;2023-04-01T02:49:33;1.80;;;1.00;;
75456;SDS011;64036;48.266;14.192;2023-04-01T02:51:59;1.70;;;0.80;;
75456;SDS011;64036;48.266;14.192;2023-04-01T02:54:25;3.10;;;1.00;;
75456;SDS011;64036;48.266;14.192;2023-04-01T02:56:52;2.70;;;0.90;;
75456;SDS011;64036;48.266;14.192;2023-04-01T02:59:23;1.80;;;0.80;;
75456;SDS011;64036;48.266;14.192;2023-04-01T03:01:57;1.40;;;0.90;;
75456;SDS011;64036;48.266;14.192;2023-04-01T03:04:33;2.20;;;0.90;;
75456;SDS011;64036;48.266;14.192;2023-04-01T03:07:06;2.50;;;1.20;;
75456;SDS011;64036;48.266;14.192;2023-04-01T03:09:32;1.60;;;0.90;;
75456;SDS011;64036;48.266;14.192;2023-04-01T03:11:57;2.70;;;1.00;;
75456;SDS011;64036;48.266;14.192;2023-04-01T03:14:23;0.60;;;0.60;;
75456;SDS011;64036;48.266;14.192;2023-04-01T03:16:49;1.60;;;0.80;;
75456;SDS011;64036;48.266;14.192;2023-04-01T03:19:18;2.60;;;0.80;;
75456;SDS011;64036;48.266;14.192;2023-04-01T03:21:50;1.70;;;0.80;;
75456;SDS011;64036;48.266;14.192;2023-04-01T03:24:20;1.50;;;0.90;;
75456;SDS011;64036;48.266;14.192;2023-04-01T03:26:46;1.50;;;0.70;;
75456;SDS011;64036;48.266;14.192;2023-04-01T03:29:35;0.50;;;0.50;;
75456;SDS011;64036;48.266;14.192;2023-04-01T03:32:01;2.20;;;0.80;;
75456;SDS011;64036;48.266;14.192;2023-04-01T03:34:27;2.70;;;1.00;;
75456;SDS011;64036;48.266;14.192;2023-04-01T03:36:53;1.90;;;0.70;;
75456;SDS011;64036;48.266;14.192;2023-04-01T03:39:23;5.40;;;1.00;;
75456;SDS011;64036;48.266;14.192;2023-04-01T03:41:52;2.40;;;0.70;;
75456;SDS011;64036;48.266;14.192;2023-04-01T03:44:21;1.10;;;0.70;;
75456;SDS011;64036;48.266;14.192;2023-04-01T03:46:47;1.60;;;0.70;;
75456;SDS011;64036;48.266;14.192;2023-04-01T03:49:17;3.20;;;1.00;;
75456;SDS011;64036;48.266;14.192;2023-04-01T03:51:43;0.60;;;0.60;;
75456;SDS011;64036;48.266;14.192;2023-04-01T03:54:10;2.90;;;0.80;;
75456;SDS011;64036;48.266;14.192;2023-04-01T03:56:39;3.80;;;1.00;;
75456;SDS011;64036;48.266;14.192;2023-04-01T03:59:07;2.80;;;0.90;;
75456;SDS011;64036;48.266;14.192;2023-04-01T04:01:33;1.30;;;0.80;;
75456;SDS011;64036;48.266;14.192;2023-04-01T04:04:07;1.70;;;0.80;;
75456;SDS011;64036;48.266;14.192;2023-04-01T04:06:41;2.60;;;0.70;;
75456;SDS011;64036;48.266;14.192;2023-04-01T04:09:12;1.00;;;0.80;;
75456;SDS011;64036;48.266;14.192;2023-04-01T04:11:37;2.30;;;0.90;;
75456;SDS011;64036;48.266;14.192;2023-04-01T04:14:06;3.50;;;0.80;;
75456;SDS011;64036;48.266;14.192;2023-04-01T04:16:34;2.80;;;0.90;;
75456;SDS011;64036;48.266;14.192;2023-04-01T04:19:04;0.60;;;0.50;;
75456;SDS011;64036;48.266;14.192;2023-04-01T04:21:30;1.00;;;0.80;;
75456;SDS011;64036;48.266;14.192;2023-04-01T04:23:59;2.20;;;0.80;;
75456;SDS011;64036;48.266;14.192;2023-04-01T04:26:26;2.80;;;1.10;;
75456;SDS011;64036;48.266;14.192;2023-04-01T04:28:54;1.70;;;0.90;;
75456;SDS011;64036;48.266;14.192;2023-04-01T04:31:22;1.60;;;0.90;;
75456;SDS011;64036;48.266;14.192;2023-04-01T04:33:49;2.90;;;1.20;;
75456;SDS011;64036;48.266;14.192;2023-04-01T04:36:22;1.80;;;0.90;;
75456;SDS011;64036;48.266;14.192;2023-04-01T04:38:52;3.50;;;0.90;;
75456;SDS011;64036;48.266;14.192;2023-04-01T04:41:20;2.20;;;1.00;;
75456;SDS011;64036;48.266;14.192;2023-04-01T04:43:52;2.00;;;1.00;;
75456;SDS011;64036;48.266;14.192;2023-04-01T04:46:29;2.50;;;1.00;;
75456;SDS011;64036;48.266;14.192;2023-04-01T04:49:08;1.90;;;0.80;;
75456;SDS011;64036;48.266;14.192;2023-04-01T04:51:37;1.60;;;0.90;;
75456;SDS011;64036;48.266;14.192;2023-04-01T04:54:11;0.80;;;0.80;;
75456;SDS011;64036;48.266;14.192;2023-04-01T04:56:50;1.00;;;0.80;;
75456;SDS011;64036;48.266;14.192;2023-04-01T04:59:20;3.50;;;1.00;;
75456;SDS011;64036;48.266;14.192;2023-04-01T05:01:59;1.20;;;0.80;;
75456;SDS011;64036;48.266;14.192;2023-04-01T05:04:25;2.70;;;0.70;;
75456;SDS011;64036;48.266;14.192;2023-04-01T05:09:54;1.90;;;1.00;;
75456;SDS011;64036;48.266;14.192;2023-04-01T05:12:23;2.50;;;0.80;;
75456;SDS011;64036;48.266;14.192;2023-04-01T05:14:52;0.80;;;0.80;;
75456;SDS011;64036;48.266;14.192;2023-04-01T05:17:32;1.00;;;0.90;;
75456;SDS011;64036;48.266;14.192;2023-04-01T05:20:08;3.70;;;1.00;;
75456;SDS011;64036;48.266;14.192;2023-04-01T05:22:34;0.90;;;0.70;;
75456;SDS011;64036;48.266;14.192;2023-04-01T05:25:02;1.30;;;0.90;;
75456;SDS011;64036;48.266;14.192;2023-04-01T05:27:28;0.70;;;0.60;;
75456;SDS011;64036;48.266;14.192;2023-04-01T05:30:06;1.90;;;0.80;;
75456;SDS011;64036;48.266;14.192;2023-04-01T05:32:32;1.60;;;0.90;;
75456;SDS011;64036;48.266;14.192;2023-04-01T05:34:58;2.90;;;1.10;;
75456;SDS011;64036;48.266;14.192;2023-04-01T05:37:24;3.00;;;1.00;;
75456;SDS011;64036;48.266;14.192;2023-04-01T05:39:49;1.40;;;0.80;;
75456;SDS011;64036;48.266;14.192;2023-04-01T05:42:20;2.40;;;0.90;;
75456;SDS011;64036;48.266;14.192;2023-04-01T05:44:55;2.30;;;1.10;;
75456;SDS011;64036;48.266;14.192;2023-04-01T05:47:24;1.30;;;0.80;;
75456;SDS011;64036;48.266;14.192;2023-04-01T05:49:52;0.90;;;0.90;;
75456;SDS011;64036;48.266;14.192;2023-04-01T05:52:28;1.30;;;0.80;;
75456;SDS011;64036;48.266;14.192;2023-04-01T05:54:54;3.10;;;1.10;;
75456;SDS011;64036;48.266;14.192;2023-04-01T05:57:29;0.90;;;0.70;;
75456;SDS011;64036;48.266;14.192;2023-04-01T05:59:55;1.20;;;0.70;;
75456;SDS011;64036;48.266;14.192;2023-04-01T06:02:23;0.70;;;0.70;;
75456;SDS011;64036;48.266;14.192;2023-04-01T06:04:49;1.80;;;0.90;;
75456;SDS011;64036;48.266;14.192;2023-04-01T06:07:20;1.30;;;0.80;;
75456;SDS011;64036;48.266;14.192;2023-04-01T06:09:46;2.80;;;1.00;;
75456;SDS011;64036;48.266;14.192;2023-04-01T06:17:30;2.30;;;0.90;;
75456;SDS011;64036;48.266;14.192;2023-04-01T06:20:27;1.40;;;1.00;;
75456;SDS011;64036;48.266;14.192;2023-04-01T06:42:38;1.50;;;1.00;;
75456;SDS011;64036;48.266;14.192;2023-04-01T06:45:31;1.50;;;0.90;;
75456;SDS011;64036;48.266;14.192;2023-04-01T06:54:09;2.10;;;1.00;;
75456;SDS011;64036;48.266;14.192;2023-04-01T06:56:40;2.00;;;1.00;;
75456;SDS011;64036;48.266;14.192;2023-04-01T06:59:18;1.10;;;0.80;;
75456;SDS011;64036;48.266;14.192;2023-04-01T07:01:52;1.90;;;0.90;;
75456;SDS011;64036;48.266;14.192;2023-04-01T07:04:27;1.40;;;0.90;;
75456;SDS011;64036;48.266;14.192;2023-04-01T07:07:10;1.00;;;0.60;;
75456;SDS011;64036;48.266;14.192;2023-04-01T07:09:43;1.10;;;0.80;;
75456;SDS011;64036;48.266;14.192;2023-04-01T07:12:22;0.90;;;0.90;;
75456;SDS011;64036;48.266;14.192;2023-04-01T07:15:21;1.50;;;1.00;;
75456;SDS011;64036;48.266;14.192;2023-04-01T07:17:55;1.10;;;0.90;;
75456;SDS011;64036;48.266;14.192;2023-04-01T07:20:30;0.90;;;0.70;;
75456;SDS011;64036;48.266;14.192;2023-04-01T07:23:11;1.20;;;0.70;;
75456;SDS011;64036;48.266;14.192;2023-04-01T07:25:48;0.70;;;0.70;;
75456;SDS011;64036;48.266;14.192;2023-04-01T07:28:17;0.50;;;0.50;;
75456;SDS011;64036;48.266;14.192;2023-04-01T07:31:18;0.60;;;0.60;;
75456;SDS011;64036;48.266;14.192;2023-04-01T07:37:06;0.60;;;0.60;;
75456;SDS011;64036;48.266;14.192;2023-04-01T07:46:03;0.80;;;0.70;;
75456;SDS011;64036;48.266;14.192;2023-04-01T07:57:03;0.50;;;0.50;;
75456;SDS011;64036;48.266;14.192;2023-04-01T08:03:01;2.40;;;0.90;;
75456;SDS011;64036;48.266;14.192;2023-04-01T08:14:36;1.20;;;0.80;;
75456;SDS011;64036;48.266;14.192;2023-04-01T08:17:12;1.00;;;0.90;;
75456;SDS011;64036;48.266;14.192;2023-04-01T08:22:44;1.40;;;0.80;;
75456;SDS011;64036;48.266;14.192;2023-04-01T08:25:18;1.20;;;0.80;;
75456;SDS011;64036;48.266;14.192;2023-04-01T08:27:53;1.10;;;0.90;;
75456;SDS011;64036;48.266;14.192;2023-04-01T08:30:28;1.90;;;0.90;;
75456;SDS011;64036;48.266;14.192;2023-04-01T08:33:16;1.20;;;0.70;;
75456;SDS011;64036;48.266;14.192;2023-04-01T08:36:03;0.70;;;0.60;;
75456;SDS011;64036;48.266;14.192;2023-04-01T08:38:50;1.30;;;0.70;;
75456;SDS011;64036;48.266;14.192;2023-04-01T09:02:29;1.00;;;0.60;;
75456;SDS011;64036;48.266;14.192;2023-04-01T09:06:05;0.90;;;0.60;;
75456;SDS011;64036;48.266;14.192;2023-04-01T09:26:03;0.60;;;0.60;;
75456;SDS011;64036;48.266;14.192;2023-04-01T09:28:28;1.20;;;0.60;;
75456;SDS011;64036;48.266;14.192;2023-04-01T09:34:02;1.00;;;0.70;;
75456;SDS011;64036;48.266;14.192;2023-04-01T09:40:09;1.10;;;0.60;;
75456;SDS011;64036;48.266;14.192;2023-04-01T09:42:48;1.90;;;0.60;;
75456;SDS011;64036;48.266;14.192;2023-04-01T09:48:45;0.80;;;0.70;;
75456;SDS011;64036;48.266;14.192;2023-04-01T10:03:30;1.20;;;0.60;;
75456;SDS011;64036;48.266;14.192;2023-04-01T10:06:41;1.60;;;0.80;;
75456;SDS011;64036;48.266;14.192;2023-04-01T10:10:25;1.50;;;0.70;;
75456;SDS011;64036;48.266;14.192;2023-04-01T10:43:49;1.10;;;0.90;;
75456;SDS011;64036;48.266;14.192;2023-04-01T10:46:57;1.50;;;0.80;;
75456;SDS011;64036;48.266;14.192;2023-04-01T11:26:02;1.90;;;0.80;;
75456;SDS011;64036;48.266;14.192;2023-04-01T11:31:54;2.20;;;0.80;;
75456;SDS011;64036;48.266;14.192;2023-04-01T11:34:47;1.90;;;0.70;;
75456;SDS011;64036;48.266;14.192;2023-04-01T11:37:51;0.60;;;0.60;;
75456;SDS011;64036;48.266;14.192;2023-04-01T11:40:46;1.40;;;0.80;;
75456;SDS011;64036;48.266;14.192;2023-04-01T11:46:36;1.00;;;0.70;;
75456;SDS011;64036;48.266;14.192;2023-04-01T11:49:07;1.40;;;0.70;;
75456;SDS011;64036;48.266;14.192;2023-04-01T11:58:06;2.90;;;0.70;;
75456;SDS011;64036;48.266;14.192;2023-04-01T12:08:50;0.60;;;0.60;;
75456;SDS011;64036;48.266;14.192;2023-04-01T12:14:41;0.90;;;0.60;;
75456;SDS011;64036;48.266;14.192;2023-04-01T12:17:27;1.00;;;0.60;;
75456;SDS011;64036;48.266;14.192;2023-04-01T12:26:22;1.00;;;0.60;;
75456;SDS011;64036;48.266;14.192;2023-04-01T12:29:26;1.80;;;0.70;;
75456;SDS011;64036;48.266;14.192;2023-04-01T12:31:59;1.20;;;0.70;;
75456;SDS011;64036;48.266;14.192;2023-04-01T12:34:55;1.10;;;0.80;;
75456;SDS011;64036;48.266;14.192;2023-04-01T12:54:48;0.50;;;0.50;;
75456;SDS011;64036;48.266;14.192;2023-04-01T13:06:32;0.60;;;0.60;;
75456;SDS011;64036;48.266;14.192;2023-04-01T13:17:35;1.00;;;0.60;;
75456;SDS011;64036;48.266;14.192;2023-04-01T13:23:01;0.70;;;0.70;;
75456;SDS011;64036;48.266;14.192;2023-04-01T13:26:06;1.70;;;1.10;;
75456;SDS011;64036;48.266;14.192;2023-04-01T13:32:10;0.80;;;0.50;;
75456;SDS011;64036;48.266;14.192;2023-04-01T13:40:55;0.80;;;0.70;;
75456;SDS011;64036;48.266;14.192;2023-04-01T13:43:43;1.40;;;0.80;;
75456;SDS011;64036;48.266;14.192;2023-04-01T13:59:08;1.50;;;0.70;;
75456;SDS011;64036;48.266;14.192;2023-04-01T14:08:47;0.70;;;0.70;;
75456;SDS011;64036;48.266;14.192;2023-04-01T14:17:18;0.50;;;0.50;;
75456;SDS011;64036;48.266;14.192;2023-04-01T14:38:54;2.30;;;0.70;;
75456;SDS011;64036;48.266;14.192;2023-04-01T14:47:51;0.50;;;0.50;;
75456;SDS011;64036;48.266;14.192;2023-04-01T14:50:41;0.50;;;0.50;;
75456;SDS011;64036;48.266;14.192;2023-04-01T14:55:53;0.50;;;0.50;;
75456;SDS011;64036;48.266;14.192;2023-04-01T14:58:46;0.60;;;0.60;;
75456;SDS011;64036;48.266;14.192;2023-04-01T15:09:57;0.70;;;0.60;;
75456;SDS011;64036;48.266;14.192;2023-04-01T15:12:57;0.80;;;0.80;;
75456;SDS011;64036;48.266;14.192;2023-04-01T15:16:09;0.50;;;0.50;;
75456;SDS011;64036;48.266;14.192;2023-04-01T15:22:13;0.60;;;0.60;;
75456;SDS011;64036;48.266;14.192;2023-04-01T15:28:55;0.50;;;0.50;;
75456;SDS011;64036;48.266;14.192;2023-04-01T15:34:35;0.60;;;0.60;;
75456;SDS011;64036;48.266;14.192;2023-04-01T15:40:49;0.40;;;0.40;;
75456;SDS011;64036;48.266;14.192;2023-04-01T15:43:49;0.40;;;0.40;;
75456;SDS011;64036;48.266;14.192;2023-04-01T15:46:48;0.60;;;0.50;;
75456;SDS011;64036;48.266;14.192;2023-04-01T15:49:37;0.50;;;0.50;;
75456;SDS011;64036;48.266;14.192;2023-04-01T15:52:35;0.50;;;0.50;;
75456;SDS011;64036;48.266;14.192;2023-04-01T15:55:41;0.90;;;0.80;;
75456;SDS011;64036;48.266;14.192;2023-04-01T15:58:35;0.60;;;0.60;;
75456;SDS011;64036;48.266;14.192;2023-04-01T16:01:32;0.50;;;0.50;;
75456;SDS011;64036;48.266;14.192;2023-04-01T16:04:54;1.40;;;0.90;;
75456;SDS011;64036;48.266;14.192;2023-04-01T16:11:24;0.70;;;0.70;;
75456;SDS011;64036;48.266;14.192;2023-04-01T16:21:44;0.50;;;0.50;;
75456;SDS011;64036;48.266;14.192;2023-04-01T16:32:45;0.50;;;0.50;;
75456;SDS011;64036;48.266;14.192;2023-04-01T16:35:29;0.60;;;0.60;;
75456;SDS011;64036;48.266;14.192;2023-04-01T16:38:24;0.60;;;0.60;;
75456;SDS011;64036;48.266;14.192;2023-04-01T16:41:27;1.30;;;0.80;;
75456;SDS011;64036;48.266;14.192;2023-04-01T16:44:30;0.70;;;0.70;;
75456;SDS011;64036;48.266;14.192;2023-04-01T16:46:59;0.80;;;0.80;;
75456;SDS011;64036;48.266;14.192;2023-04-01T16:53:13;1.60;;;0.80;;
75456;SDS011;64036;48.266;14.192;2023-04-01T16:56:50;1.30;;;0.70;;
75456;SDS011;64036;48.266;14.192;2023-04-01T17:05:01;0.60;;;0.60;;
75456;SDS011;64036;48.266;14.192;2023-04-01T17:10:51;0.90;;;0.90;;
75456;SDS011;64036;48.266;14.192;2023-04-01T17:16:47;1.00;;;0.90;;
75456;SDS011;64036;48.266;14.192;2023-04-01T17:20:10;0.80;;;0.80;;
75456;SDS011;64036;48.266;14.192;2023-04-01T17:26:21;1.00;;;0.90;;
75456;SDS011;64036;48.266;14.192;2023-04-01T17:31:44;0.70;;;0.70;;
75456;SDS011;64036;48.266;14.192;2023-04-01T17:43:54;0.70;;;0.70;;
75456;SDS011;64036;48.266;14.192;2023-04-01T17:46:56;1.50;;;0.80;;
75456;SDS011;64036;48.266;14.192;2023-04-01T17:56:17;0.60;;;0.60;;
75456;SDS011;64036;48.266;14.192;2023-04-01T17:59:17;0.80;;;0.80;;
75456;SDS011;64036;48.266;14.192;2023-04-01T18:02:39;0.80;;;0.70;;
75456;SDS011;64036;48.266;14.192;2023-04-01T18:05:27;0.70;;;0.70;;
75456;SDS011;64036;48.266;14.192;2023-04-01T18:08:31;0.70;;;0.70;;
75456;SDS011;64036;48.266;14.192;2023-04-01T18:17:33;1.00;;;0.90;;
75456;SDS011;64036;48.266;14.192;2023-04-01T18:25:35;1.30;;;1.10;;
75456;SDS011;64036;48.266;14.192;2023-04-01T18:31:24;1.20;;;1.10;;
75456;SDS011;64036;48.266;14.192;2023-04-01T18:34:07;1.20;;;1.10;;
75456;SDS011;64036;48.266;14.192;2023-04-01T18:36:46;0.90;;;0.90;;
75456;SDS011;64036;48.266;14.192;2023-04-01T18:39:48;1.20;;;1.00;;
75456;SDS011;64036;48.266;14.192;2023-04-01T18:45:50;2.10;;;1.10;;
75456;SDS011;64036;48.266;14.192;2023-04-01T18:51:55;1.00;;;0.90;;
75456;SDS011;64036;48.266;14.192;2023-04-01T18:54:31;1.50;;;1.10;;
75456;SDS011;64036;48.266;14.192;2023-04-01T18:57:13;1.00;;;0.90;;
75456;SDS011;64036;48.266;14.192;2023-04-01T19:00:04;0.90;;;0.90;;
75456;SDS011;64036;48.266;14.192;2023-04-01T19:02:50;1.40;;;1.10;;
75456;SDS011;64036;48.266;14.192;2023-04-01T19:05:36;0.90;;;0.90;;
75456;SDS011;64036;48.266;14.192;2023-04-01T19:08:32;0.90;;;0.90;;
75456;SDS011;64036;48.266;14.192;2023-04-01T19:11:36;1.50;;;1.10;;
75456;SDS011;64036;48.266;14.192;2023-04-01T19:20:51;0.80;;;0.80;;
75456;SDS011;64036;48.266;14.192;2023-04-01T19:29:34;1.20;;;1.10;;
75456;SDS011;64036;48.266;14.192;2023-04-01T19:32:45;1.60;;;1.20;;
75456;SDS011;64036;48.266;14.192;2023-04-01T19:35:33;3.60;;;1.70;;
75456;SDS011;64036;48.266;14.192;2023-04-01T19:41:36;6.20;;;2.70;;
75456;SDS011;64036;48.266;14.192;2023-04-01T19:47:44;2.10;;;1.20;;
75456;SDS011;64036;48.266;14.192;2023-04-01T19:53:20;1.30;;;1.20;;
75456;SDS011;64036;48.266;14.192;2023-04-01T19:56:22;1.30;;;1.20;;
75456;SDS011;64036;48.266;14.192;2023-04-01T19:59:10;1.90;;;1.40;;
75456;SDS011;64036;48.266;14.192;2023-04-01T20:06:08;1.30;;;1.20;;
75456;SDS011;64036;48.266;14.192;2023-04-01T20:25:34;1.30;;;1.10;;
75456;SDS011;64036;48.266;14.192;2023-04-01T20:28:30;1.30;;;1.10;;
75456;SDS011;64036;48.266;14.192;2023-04-01T20:31:27;1.20;;;1.10;;
75456;SDS011;64036;48.266;14.192;2023-04-01T20:34:15;1.00;;;0.90;;
75456;SDS011;64036;48.266;14.192;2023-04-01T20:39:36;1.10;;;1.00;;
75456;SDS011;64036;48.266;14.192;2023-04-01T20:45:31;1.50;;;1.30;;
75456;SDS011;64036;48.266;14.192;2023-04-01T20:51:26;2.50;;;1.20;;
75456;SDS011;64036;48.266;14.192;2023-04-01T20:54:22;2.70;;;1.50;;
75456;SDS011;64036;48.266;14.192;2023-04-01T20:57:38;2.90;;;1.60;;
75456;SDS011;64036;48.266;14.192;2023-04-01T21:11:58;1.80;;;1.20;;
75456;SDS011;64036;48.266;14.192;2023-04-01T21:25:24;1.20;;;1.10;;
75456;SDS011;64036;48.266;14.192;2023-04-01T21:51:03;1.20;;;1.10;;
75456;SDS011;64036;48.266;14.192;2023-04-01T22:01:08;1.30;;;0.90;;
75456;SDS011;64036;48.266;14.192;2023-04-01T22:07:15;1.30;;;0.90;;
75456;SDS011;64036;48.266;14.192;2023-04-01T22:13:16;1.50;;;1.10;;
75456;SDS011;64036;48.266;14.192;2023-04-01T22:18:40;1.80;;;1.10;;
75456;SDS011;64036;48.266;14.192;2023-04-01T22:21:26;1.90;;;1.00;;
75456;SDS011;64036;48.266;14.192;2023-04-01T22:24:24;0.90;;;0.90;;
75456;SDS011;64036;48.266;14.192;2023-04-01T22:30:21;2.20;;;1.10;;
75456;SDS011;64036;48.266;14.192;2023-04-01T22:33:05;1.50;;;1.20;;
75456;SDS011;64036;48.266;14.192;2023-04-01T22:35:50;1.10;;;0.80;;
75456;SDS011;64036;48.266;14.192;2023-04-01T22:39:03;1.10;;;1.00;;
75456;SDS011;64036;48.266;14.192;2023-04-01T22:47:48;1.30;;;0.80;;
75456;SDS011;64036;48.266;14.192;2023-04-01T22:56:55;1.10;;;0.90;;
75456;SDS011;64036;48.266;14.192;2023-04-01T23:02:33;1.00;;;0.60;;
75456;SDS011;64036;48.266;14.192;2023-04-01T23:05:15;0.80;;;0.80;;
75456;SDS011;64036;48.266;14.192;2023-04-01T23:14:31;0.70;;;0.70;;
75456;SDS011;64036;48.266;14.192;2023-04-01T23:20:44;1.00;;;0.90;;
75456;SDS011;64036;48.266;14.192;2023-04-01T23:27:17;0.80;;;0.80;;
75456;SDS011;64036;48.266;14.192;2023-04-01T23:29:47;0.80;;;0.80;;
75456;SDS011;64036;48.266;14.192;2023-04-01T23:32:25;0.60;;;0.60;;
75456;SDS011;64036;48.266;14.192;2023-04-01T23:34:56;2.00;;;0.80;;
75456;SDS011;64036;48.266;14.192;2023-04-01T23:37:27;1.10;;;0.90;;
75456;SDS011;64036;48.266;14.192;2023-04-01T23:39:57;0.70;;;0.70;;
75456;SDS011;64036;48.266;14.192;2023-04-01T23:42:32;0.70;;;0.70;;
75456;SDS011;64036;48.266;14.192;2023-04-01T23:45:05;1.00;;;0.80;;
75456;SDS011;64036;48.266;14.192;2023-04-01T23:47:39;1.20;;;1.20;;
75456;SDS011;64036;48.266;14.192;2023-04-01T23:50:32;1.10;;;0.70;;
75456;SDS011;64036;48.266;14.192;2023-04-01T23:53:20;1.10;;;0.70;;
75456;SDS011;64036;48.266;14.192;2023-04-01T23:55:55;0.70;;;0.70;;
75456;SDS011;64036;48.266;14.192;2023-04-01T23:58:42;1.00;;;0.90;;
